Time;durP1;ratioP1;P1;durP2;ratioP2;P2;SDS_P1;SDS_P2;PMS_P1;PMS_P2;Temp;Humidity;BMP_temperature;BMP_pressure;BME280_temperature;BME280_humidity;BME280_pressure;Samples;Min_cycle;Max_cycle;Signal;HPM_P1;HPM_P2
2022/11/04 00:01:39;;;;;;;0.40;0.20;;;;;;;14.10;53.24;95569.50;5112988;28;20432;-53
2022/11/04 00:04:11;;;;;;;0.50;0.30;;;;;;;14.12;52.98;95583.34;5112686;28;20432;-53
2022/11/04 00:06:40;;;;;;;0.40;0.30;;;;;;;13.98;53.62;95577.91;5112514;28;20429;-53
2022/11/04 00:09:10;;;;;;;8.30;0.67;;;;;;;13.62;54.64;95585.47;5112667;28;20932;-53
2022/11/04 00:14:24;;;;;;;1.17;0.73;;;;;;;13.71;54.44;95581.13;5112834;28;20437;-53
2022/11/04 00:30:55;;;;;;;4.13;0.50;;;;;;;13.48;55.32;95587.22;5111728;28;20454;-53
2022/11/04 00:33:25;;;;;;;1.03;0.30;;;;;;;13.61;54.83;95588.44;5112440;28;20429;-53
2022/11/04 00:35:57;;;;;;;8.27;0.77;;;;;;;13.57;54.79;95577.53;5112240;28;20446;-53
2022/11/04 00:38:26;;;;;;;0.40;0.30;;;;;;;13.39;55.38;95578.25;5111478;28;20908;-53
2022/11/04 00:40:54;;;;;;;0.40;0.27;;;;;;;13.34;55.37;95570.31;5112392;28;21001;-53
2022/11/04 00:43:22;;;;;;;0.40;0.30;;;;;;;13.43;55.87;95578.50;5111596;28;20447;-53
2022/11/04 00:45:50;;;;;;;0.40;0.30;;;;;;;13.52;55.00;95572.28;5112495;28;20415;-53
2022/11/04 00:48:19;;;;;;;0.40;0.20;;;;;;;13.54;55.16;95566.66;5111920;28;20434;-53
2022/11/04 00:50:47;;;;;;;0.53;0.53;;;;;;;13.46;55.57;95572.59;5112528;28;20439;-54
2022/11/04 00:53:16;;;;;;;0.40;0.30;;;;;;;13.43;55.34;95560.66;5112093;28;20434;-54
2022/11/04 00:55:45;;;;;;;0.40;0.30;;;;;;;13.05;55.25;95500.28;5110509;28;20428;-54
2022/11/04 00:58:13;;;;;;;0.40;0.20;;;;;;;13.45;55.47;95571.81;5112410;28;20829;-54
2022/11/04 01:00:41;;;;;;;1.00;0.60;;;;;;;13.52;55.80;95564.28;5111565;28;20904;-54
2022/11/04 01:03:09;;;;;;;0.50;0.30;;;;;;;13.42;55.50;95564.38;5112320;28;20935;-54
2022/11/04 01:05:38;;;;;;;20.97;1.17;;;;;;;13.22;56.62;95564.56;5116456;28;20774;-54
2022/11/04 01:08:06;;;;;;;0.50;0.40;;;;;;;13.13;56.37;95558.25;5116326;27;20434;-54
2022/11/04 01:10:43;;;;;;;0.40;0.30;;;;;;;13.01;56.22;95508.00;5116286;28;20433;-54
2022/11/04 01:13:12;;;;;;;0.40;0.30;;;;;;;13.44;55.72;95562.22;5115985;28;20463;-54
2022/11/04 01:15:40;;;;;;;0.40;0.20;;;;;;;13.50;55.44;95560.31;5115726;28;20428;-54
2022/11/04 01:18:08;;;;;;;0.60;0.50;;;;;;;13.46;55.70;95557.41;5115541;28;20427;-54
2022/11/04 01:20:37;;;;;;;0.53;0.47;;;;;;;13.40;56.02;95553.22;5116127;28;20509;-54
2022/11/04 01:23:05;;;;;;;0.67;0.67;;;;;;;13.43;55.50;95550.00;5116182;28;20785;-54
2022/11/04 01:25:34;;;;;;;0.40;0.30;;;;;;;13.35;55.54;95547.94;5115747;28;20479;-54
2022/11/04 01:28:03;;;;;;;0.60;0.60;;;;;;;13.38;55.79;95550.81;5115720;28;20436;-54
2022/11/04 01:30:32;;;;;;;0.40;0.30;;;;;;;13.42;55.61;95553.72;5115909;28;20439;-54
2022/11/04 01:33:00;;;;;;;0.40;0.30;;;;;;;13.12;56.71;95543.34;5115947;28;20766;-54
2022/11/04 01:35:28;;;;;;;0.50;0.33;;;;;;;12.91;58.32;95548.00;5115777;28;20768;-54
2022/11/04 01:37:58;;;;;;;3.90;0.40;;;;;;;12.93;57.71;95542.44;5115561;28;20415;-54
2022/11/04 01:40:27;;;;;;;0.80;0.80;;;;;;;12.53;59.10;95554.91;5115358;28;20474;-54
2022/11/04 01:42:55;;;;;;;2.00;0.60;;;;;;;12.28;59.93;95544.41;5115462;28;20953;-54
2022/11/04 01:45:25;;;;;;;0.50;0.50;;;;;;;11.54;61.42;95491.31;5115694;28;20430;-54
2022/11/04 01:48:01;;;;;;;0.60;0.37;;;;;;;11.88;62.32;95545.41;5115656;28;20902;-54
2022/11/04 01:50:32;;;;;;;0.57;0.50;;;;;;;11.84;62.32;95548.88;5115157;28;20437;-54
2022/11/04 01:53:06;;;;;;;0.63;0.63;;;;;;;11.92;63.05;95542.97;5115531;27;20422;-54
2022/11/04 01:55:39;;;;;;;0.40;0.30;;;;;;;12.17;61.38;95552.72;5115253;28;20472;-54
2022/11/04 01:58:11;;;;;;;0.50;0.40;;;;;;;11.49;61.42;95478.06;5115407;28;20810;-54
2022/11/04 02:00:42;;;;;;;0.40;0.40;;;;;;;11.51;63.34;95523.69;5115614;28;20465;-54
2022/11/04 02:03:15;;;;;;;0.73;0.73;;;;;;;11.85;62.43;95537.97;5115416;28;20430;-54
2022/11/04 02:05:44;;;;;;;0.50;0.40;;;;;;;11.61;63.48;95534.31;5115321;28;20932;-54
2022/11/04 02:08:15;;;;;;;0.50;0.50;;;;;;;11.70;63.63;95535.38;5114989;28;20927;-54
2022/11/04 02:10:51;;;;;;;0.40;0.30;;;;;;;11.20;63.39;95442.59;5115010;28;20427;-54
2022/11/04 02:13:19;;;;;;;0.70;0.70;;;;;;;11.70;64.02;95518.63;5115066;28;20453;-54
2022/11/04 02:15:59;;;;;;;0.90;0.90;;;;;;;12.00;62.14;95518.53;5113874;28;20936;-54
2022/11/04 02:18:52;;;;;;;0.60;0.53;;;;;;;11.97;62.48;95513.75;5115079;28;20427;-54
2022/11/04 02:21:58;;;;;;;2.10;1.10;;;;;;;11.91;62.76;95514.84;5114998;28;20842;-53
2022/11/04 02:24:47;;;;;;;0.40;0.30;;;;;;;12.09;61.08;95512.34;5114589;28;20449;-53
2022/11/04 02:27:49;;;;;;;1.37;1.37;;;;;;;12.01;61.03;95514.81;5114328;28;20474;-53
2022/11/04 02:30:19;;;;;;;0.50;0.40;;;;;;;12.09;60.51;95514.25;5103497;28;20444;-53
2022/11/04 02:33:03;;;;;;;0.70;0.50;;;;;;;11.89;61.42;95511.69;5114433;28;20425;-54
2022/11/04 02:35:42;;;;;;;1.57;0.73;;;;;;;12.18;60.03;95520.56;5114499;28;20432;-54
2022/11/04 02:38:18;;;;;;;0.40;0.40;;;;;;;12.28;59.33;95512.53;5114682;27;20526;-54
2022/11/04 02:40:57;;;;;;;0.50;0.40;;;;;;;12.23;58.85;95503.78;5114613;28;20471;-54
2022/11/04 02:43:33;;;;;;;0.77;0.73;;;;;;;12.17;59.11;95516.31;5114327;28;20421;-53
2022/11/04 02:46:10;;;;;;;1.47;1.37;;;;;;;12.10;59.35;95515.81;5114873;28;20423;-53
2022/11/04 02:48:44;;;;;;;0.40;0.30;;;;;;;11.68;61.44;95518.09;5114170;28;20438;-53
2022/11/04 02:51:18;;;;;;;0.50;0.50;;;;;;;11.72;61.33;95503.22;5114162;28;20420;-53
2022/11/04 02:53:58;;;;;;;0.87;0.83;;;;;;;12.01;59.92;95512.16;5114159;28;20431;-53
2022/11/04 02:56:27;;;;;;;0.40;0.20;;;;;;;12.20;59.86;95512.31;5114050;28;20421;-53
2022/11/04 02:59:00;;;;;;;0.50;0.47;;;;;;;12.12;58.95;95504.94;5114025;28;20432;-53
2022/11/04 03:01:36;;;;;;;0.40;0.37;;;;;;;11.97;59.46;95495.94;5114134;28;20473;-53
2022/11/04 03:04:09;;;;;;;0.60;0.60;;;;;;;12.08;59.58;95513.44;5113931;28;20456;-53
2022/11/04 03:06:39;;;;;;;0.97;0.30;;;;;;;11.83;60.32;95516.22;5114229;28;20794;-53
2022/11/04 03:09:10;;;;;;;0.70;0.70;;;;;;;11.94;60.04;95512.44;5113647;28;20427;-54
2022/11/04 03:11:42;;;;;;;0.50;0.50;;;;;;;12.04;60.13;95519.56;5112815;28;20967;-53
2022/11/04 03:14:16;;;;;;;1.53;1.53;;;;;;;12.07;59.74;95511.03;5113501;28;20419;-53
2022/11/04 03:16:48;;;;;;;0.40;0.20;;;;;;;12.16;59.74;95517.38;5113992;28;20827;-53
2022/11/04 03:19:26;;;;;;;0.70;0.70;;;;;;;12.27;58.83;95516.25;5112985;28;20421;-53
2022/11/04 03:22:00;;;;;;;0.60;0.57;;;;;;;12.07;60.07;95514.50;5113117;28;20469;-54
2022/11/04 03:24:30;;;;;;;0.57;0.57;;;;;;;11.97;59.93;95509.22;5113150;28;20433;-53
2022/11/04 03:27:02;;;;;;;0.40;0.30;;;;;;;11.95;59.82;95521.19;5111899;28;20480;-54
2022/11/04 03:29:33;;;;;;;1.83;1.73;;;;;;;11.83;59.92;95518.88;5112893;28;20427;-53
2022/11/04 03:32:11;;;;;;;0.40;0.20;;;;;;;11.83;60.54;95521.53;5112722;27;20954;-53
2022/11/04 03:34:39;;;;;;;0.40;0.20;;;;;;;11.84;60.60;95519.66;5112820;28;20792;-53
2022/11/04 03:37:09;;;;;;;0.40;0.30;;;;;;;11.45;63.10;95519.47;5113224;28;20432;-53
2022/11/04 03:39:38;;;;;;;2.93;0.60;;;;;;;11.37;63.18;95512.06;5113320;28;20412;-53
2022/11/04 03:42:20;;;;;;;0.43;0.30;;;;;;;11.74;61.29;95520.47;5112861;28;20965;-53
2022/11/04 03:44:50;;;;;;;0.70;0.70;;;;;;;11.74;60.37;95515.16;5112390;28;20425;-53
2022/11/04 03:47:22;;;;;;;0.50;0.50;;;;;;;11.17;63.34;95523.50;5113326;28;20437;-53
2022/11/04 03:49:54;;;;;;;0.50;0.50;;;;;;;11.47;61.53;95510.19;5112239;28;20433;-53
2022/11/04 03:52:23;;;;;;;31.50;0.90;;;;;;;11.37;63.68;95520.81;5113160;28;20777;-53
2022/11/04 03:54:52;;;;;;;0.57;0.57;;;;;;;11.56;61.66;95517.59;5112967;28;20438;-53
2022/11/04 03:57:44;;;;;;;0.40;0.30;;;;;;;11.56;61.38;95515.72;5113006;28;20773;-53
2022/11/04 04:00:14;;;;;;;0.53;0.53;;;;;;;11.54;62.11;95512.53;5112388;28;20947;-53
2022/11/04 04:02:55;;;;;;;2.93;0.30;;;;;;;11.56;62.18;95506.97;5112904;28;20467;-53
2022/11/04 04:05:27;;;;;;;0.50;0.50;;;;;;;11.65;61.60;95508.81;5112775;28;20428;-53
2022/11/04 04:08:06;;;;;;;0.40;0.30;;;;;;;11.46;62.44;95516.53;5113019;28;20931;-53
2022/11/04 04:10:39;;;;;;;1.20;1.10;;;;;;;11.58;61.59;95507.50;5112792;28;20425;-52
2022/11/04 04:13:21;;;;;;;1.23;0.70;;;;;;;11.56;61.20;95499.03;5112018;28;20426;-53
2022/11/04 04:15:56;;;;;;;0.40;0.30;;;;;;;11.70;61.02;95502.72;5112738;28;20772;-53
2022/11/04 04:18:34;;;;;;;0.60;0.60;;;;;;;11.45;60.60;95451.28;5112674;28;20418;-53
2022/11/04 04:21:07;;;;;;;0.70;0.40;;;;;;;11.71;60.57;95512.28;5112475;28;20429;-53
2022/11/04 04:29:12;;;;;;;0.40;0.30;;;;;;;11.59;61.36;95511.72;5112410;28;20431;-52
2022/11/04 04:31:51;;;;;;;0.40;0.30;;;;;;;11.58;61.80;95515.47;5111934;28;20420;-53
2022/11/04 04:34:23;;;;;;;3.37;1.57;;;;;;;11.45;62.33;95507.00;5111532;28;20423;-53
2022/11/04 04:36:58;;;;;;;0.93;0.93;;;;;;;11.02;62.55;95451.13;5112284;28;20772;-52
2022/11/04 04:45:06;;;;;;;1.23;0.40;;;;;;;11.22;63.12;95510.25;5112433;28;20460;-53
2022/11/04 04:47:46;;;;;;;0.50;0.40;;;;;;;10.41;64.99;95467.06;5111958;28;20432;-53
2022/11/04 04:50:18;;;;;;;0.50;0.40;;;;;;;10.31;67.64;95501.50;5111316;28;20809;-53
2022/11/04 04:52:49;;;;;;;1.37;0.53;;;;;;;10.54;67.95;95518.75;5111969;28;20428;-53
2022/11/04 04:55:18;;;;;;;0.77;0.77;;;;;;;10.24;68.48;95493.00;5112272;28;20447;-53
2022/11/04 04:57:46;;;;;;;0.60;0.50;;;;;;;10.09;71.03;95524.72;5111959;28;20442;-53
2022/11/04 05:00:17;;;;;;;0.50;0.30;;;;;;;10.02;71.07;95511.72;5111034;28;20428;-54
2022/11/04 05:02:46;;;;;;;0.40;0.33;;;;;;;10.12;71.37;95522.38;5112095;28;20472;-54
2022/11/04 05:05:17;;;;;;;0.57;0.50;;;;;;;10.13;71.00;95518.66;5110967;28;20428;-54
2022/11/04 05:07:45;;;;;;;0.97;0.87;;;;;;;10.05;72.08;95500.59;5111640;28;20547;-53
2022/11/04 05:10:16;;;;;;;0.93;0.67;;;;;;;10.29;71.31;95527.47;5112016;28;20432;-52
2022/11/04 05:15:31;;;;;;;2.03;1.93;;;;;;;10.31;71.08;95524.53;5111575;28;20439;-52
2022/11/04 05:18:01;;;;;;;0.70;0.50;;;;;;;10.03;73.37;95525.75;5111714;28;20432;-51
2022/11/04 05:20:32;;;;;;;1.43;1.33;;;;;;;10.17;72.40;95532.97;5112140;28;20525;-52
2022/11/04 05:23:01;;;;;;;0.63;0.60;;;;;;;10.17;71.63;95506.47;5111657;28;20463;-52
2022/11/04 05:25:29;;;;;;;0.67;0.67;;;;;;;10.78;68.10;95530.41;5111115;28;21140;-53
2022/11/04 05:28:00;;;;;;;0.63;0.50;;;;;;;10.46;70.50;95540.47;5111171;28;20432;-52
2022/11/04 05:30:29;;;;;;;1.07;1.07;;;;;;;10.34;72.40;95540.72;5110671;28;20441;-53
2022/11/04 05:32:57;;;;;;;3.70;1.30;;;;;;;9.80;76.12;95537.59;5111478;28;20778;-53
2022/11/04 05:35:34;;;;;;;0.40;0.30;;;;;;;9.98;77.36;95539.78;5111600;28;20424;-52
2022/11/04 05:38:02;;;;;;;4.97;1.43;;;;;;;9.30;77.51;95464.06;5111783;28;20420;-53
2022/11/04 05:40:30;;;;;;;2.03;1.93;;;;;;;10.17;77.33;95556.81;5111312;28;20435;-52
2022/11/04 05:42:59;;;;;;;0.60;0.60;;;;;;;10.47;73.62;95552.66;5111510;28;20580;-52
2022/11/04 05:45:28;;;;;;;1.73;1.63;;;;;;;10.56;71.34;95503.38;5111305;28;20433;-53
2022/11/04 05:48:00;;;;;;;0.40;0.30;;;;;;;11.17;69.07;95563.31;5111515;28;20443;-53
2022/11/04 05:50:29;;;;;;;0.50;0.50;;;;;;;11.36;67.95;95564.34;5112167;28;20432;-52
2022/11/04 05:52:59;;;;;;;0.60;0.50;;;;;;;11.20;68.23;95568.09;5114141;28;20428;-53
2022/11/04 05:55:28;;;;;;;2.00;0.40;;;;;;;11.39;68.33;95550.53;5114875;28;20421;-53
2022/11/04 05:57:58;;;;;;;1.20;1.10;;;;;;;11.66;67.72;95566.16;5114870;27;20443;-53
2022/11/04 06:00:27;;;;;;;5.70;3.00;;;;;;;12.02;66.14;95567.66;5115156;28;20542;-53
2022/11/04 06:02:57;;;;;;;2.70;1.80;;;;;;;11.68;66.34;95529.53;5114952;28;20488;-53
2022/11/04 06:05:25;;;;;;;2.37;2.27;;;;;;;12.14;65.48;95555.94;5115372;28;20419;-53
2022/11/04 06:07:54;;;;;;;1.27;1.07;;;;;;;12.56;64.48;95574.84;5114719;28;20433;-53
2022/11/04 06:10:24;;;;;;;1.30;1.20;;;;;;;12.89;63.65;95567.97;5114818;28;20421;-53
2022/11/04 06:12:53;;;;;;;3.17;1.00;;;;;;;13.27;62.26;95567.19;5114633;28;21729;-53
2022/11/04 06:15:21;;;;;;;1.20;1.00;;;;;;;13.74;60.22;95567.25;5114708;28;20434;-53
2022/11/04 06:17:49;;;;;;;3.80;1.47;;;;;;;13.92;59.72;95566.53;5114583;28;20431;-53
2022/11/04 06:20:18;;;;;;;1.97;1.87;;;;;;;14.16;59.23;95577.19;5114398;28;20432;-53
2022/11/04 06:22:46;;;;;;;3.37;3.10;;;;;;;14.27;58.99;95575.19;5114341;28;20463;-55
2022/11/04 06:25:14;;;;;;;2.97;2.77;;;;;;;14.16;59.17;95568.38;5114383;28;20501;-55
2022/11/04 06:27:44;;;;;;;2.10;2.00;;;;;;;14.74;58.18;95561.78;5114562;27;20512;-54
2022/11/04 06:30:12;;;;;;;1.93;1.83;;;;;;;15.18;56.52;95569.34;5114415;28;20423;-55
2022/11/04 06:32:41;;;;;;;1.97;1.87;;;;;;;15.44;55.29;95567.06;5114408;28;20799;-55
2022/11/04 06:35:09;;;;;;;1.27;1.27;;;;;;;15.39;54.51;95513.75;5114326;28;20427;-55
2022/11/04 06:37:38;;;;;;;0.70;0.60;;;;;;;15.48;54.26;95560.09;5113776;28;20459;-55
2022/11/04 06:40:08;;;;;;;3.87;3.23;;;;;;;15.28;54.50;95577.19;5113699;28;20430;-55
2022/11/04 06:42:36;;;;;;;5.93;3.27;;;;;;;15.18;54.73;95567.50;5113508;28;20438;-55
2022/11/04 06:45:07;;;;;;;5.97;2.23;;;;;;;15.63;53.88;95565.97;5114211;28;20418;-55
2022/11/04 06:47:35;;;;;;;6.70;3.20;;;;;;;15.97;52.95;95567.47;5113825;28;20436;-56
2022/11/04 06:50:04;;;;;;;6.90;3.70;;;;;;;15.81;52.96;95578.44;5113887;28;20891;-56
2022/11/04 06:52:32;;;;;;;1.70;1.43;;;;;;;16.02;53.23;95562.03;5113964;27;20426;-56
2022/11/04 06:55:09;;;;;;;3.13;2.50;;;;;;;16.31;52.58;95575.91;5113590;28;20875;-57
2022/11/04 06:57:38;;;;;;;3.63;1.80;;;;;;;16.67;52.24;95567.94;5114031;28;20420;-57
2022/11/04 07:00:09;;;;;;;5.20;2.70;;;;;;;17.17;51.01;95556.09;5114160;27;20416;-57
2022/11/04 07:02:37;;;;;;;1.53;0.60;;;;;;;16.85;50.69;95554.41;5113883;28;20431;-56
2022/11/04 07:05:07;;;;;;;2.30;2.10;;;;;;;16.94;50.69;95560.63;5113619;28;20473;-56
2022/11/04 07:07:35;;;;;;;3.93;1.00;;;;;;;16.79;50.82;95563.66;5113473;28;20427;-55
2022/11/04 07:10:04;;;;;;;0.80;0.80;;;;;;;16.72;50.35;95557.13;5113751;28;20420;-55
2022/11/04 07:12:32;;;;;;;1.13;1.03;;;;;;;16.98;50.54;95552.78;5113914;28;20784;-54
2022/11/04 07:15:00;;;;;;;1.57;1.50;;;;;;;17.15;50.22;95550.25;5113729;28;20514;-54
2022/11/04 07:17:30;;;;;;;3.63;3.33;;;;;;;16.47;49.68;95412.06;5113425;28;20938;-53
2022/11/04 07:19:58;;;;;;;0.87;0.87;;;;;;;17.56;49.07;95542.78;5113516;28;20754;-55
2022/11/04 07:22:26;;;;;;;1.63;1.47;;;;;;;18.38;47.59;95532.22;5113603;28;20938;-54
2022/11/04 07:24:54;;;;;;;1.10;1.00;;;;;;;18.14;47.60;95542.56;5113183;28;20505;-54
2022/11/04 07:27:23;;;;;;;2.70;1.60;;;;;;;18.01;46.98;95446.16;5113394;28;20478;-54
2022/11/04 07:29:51;;;;;;;2.40;1.53;;;;;;;18.82;46.02;95536.56;5113617;28;20413;-54
2022/11/04 07:32:20;;;;;;;1.53;1.43;;;;;;;19.05;45.99;95539.13;5112954;28;20420;-54
2022/11/04 07:34:49;;;;;;;0.90;0.90;;;;;;;19.44;46.66;95526.28;5113580;28;20924;-54
2022/11/04 07:37:18;;;;;;;1.33;1.23;;;;;;;19.21;44.79;95478.38;5113443;28;20428;-54
2022/11/04 07:39:46;;;;;;;0.80;0.73;;;;;;;18.77;45.85;95522.53;5113387;27;20428;-53
2022/11/04 07:42:14;;;;;;;4.00;1.93;;;;;;;19.43;44.70;95523.91;5113347;28;20436;-54
2022/11/04 07:44:42;;;;;;;0.60;0.60;;;;;;;19.82;43.89;95514.78;5112827;28;20967;-54
2022/11/04 07:47:11;;;;;;;1.10;0.73;;;;;;;19.91;43.50;95510.16;5113212;27;20772;-54
2022/11/04 07:49:39;;;;;;;2.07;1.20;;;;;;;20.18;43.14;95513.19;5112517;28;20424;-54
2022/11/04 07:52:09;;;;;;;1.33;1.23;;;;;;;20.15;43.75;95505.75;5112883;28;20427;-53
2022/11/04 07:54:38;;;;;;;1.47;0.83;;;;;;;20.75;42.23;95500.00;5112299;28;20928;-53
2022/11/04 07:57:07;;;;;;;1.87;1.07;;;;;;;21.14;41.32;95493.38;5113148;28;20420;-61
2022/11/04 07:59:35;;;;;;;42.90;1.57;;;;;;;21.71;41.01;95498.00;5112843;28;20442;-61
2022/11/04 08:02:03;;;;;;;2.67;2.57;;;;;;;21.97;41.50;95491.22;5112931;28;20420;-60
2022/11/04 08:04:32;;;;;;;1.00;0.90;;;;;;;22.42;40.41;95487.59;5112582;28;20955;-59
2022/11/04 08:07:00;;;;;;;2.57;2.43;;;;;;;22.00;39.58;95492.47;5112980;28;20455;-59
2022/11/04 08:09:30;;;;;;;1.40;1.30;;;;;;;22.03;39.67;95489.91;5112937;28;20961;-60
2022/11/04 08:11:59;;;;;;;0.43;0.37;;;;;;;22.96;38.67;95475.34;5110959;28;21005;-60
2022/11/04 08:14:27;;;;;;;1.37;1.27;;;;;;;23.23;38.13;95466.44;5111766;28;20419;-59
2022/11/04 08:16:56;;;;;;;0.53;0.50;;;;;;;23.13;38.51;95466.94;5112443;28;20428;-59
2022/11/04 08:19:25;;;;;;;1.10;0.90;;;;;;;24.26;36.89;95464.44;5112499;28;20420;-59
2022/11/04 08:21:53;;;;;;;7.53;1.87;;;;;;;23.65;37.36;95455.19;5112477;28;20424;-58
2022/11/04 08:24:21;;;;;;;3.23;1.03;;;;;;;23.38;38.15;95459.50;5112305;28;20471;-58
2022/11/04 08:26:51;;;;;;;1.33;0.90;;;;;;;24.36;37.51;95453.03;5111800;28;20475;-58
2022/11/04 08:29:19;;;;;;;1.20;1.20;;;;;;;25.35;35.40;95446.97;5112464;28;20420;-58
2022/11/04 08:31:48;;;;;;;0.83;0.83;;;;;;;24.71;35.52;95441.41;5112058;28;20423;-58
2022/11/04 08:34:17;;;;;;;0.90;0.70;;;;;;;25.42;35.16;95430.84;5112557;28;20435;-58
2022/11/04 08:36:45;;;;;;;2.10;0.77;;;;;;;27.06;34.31;95431.03;5112297;28;20432;-58
2022/11/04 08:39:14;;;;;;;0.60;0.60;;;;;;;27.06;32.27;95427.53;5112277;28;20923;-58
2022/11/04 08:41:44;;;;;;;1.13;1.13;;;;;;;23.89;35.05;95319.66;5112220;28;20424;-58
2022/11/04 08:44:14;;;;;;;1.77;1.67;;;;;;;24.81;35.01;95432.75;5112376;28;20467;-58
2022/11/04 08:46:45;;;;;;;1.33;1.23;;;;;;;24.82;34.90;95428.91;5112590;28;20776;-57
2022/11/04 08:49:13;;;;;;;1.00;0.90;;;;;;;24.52;35.37;95431.34;5112559;28;20428;-56
2022/11/04 08:51:55;;;;;;;2.80;1.10;;;;;;;24.48;35.36;95423.13;5112718;28;20506;-57
2022/11/04 08:54:23;;;;;;;4.30;1.33;;;;;;;24.69;35.29;95420.09;5112404;28;20416;-57
2022/11/04 08:56:52;;;;;;;1.30;1.20;;;;;;;24.56;35.17;95416.75;5112015;28;20428;-57
2022/11/04 08:59:23;;;;;;;3.63;2.50;;;;;;;24.68;35.80;95413.09;5111993;28;20970;-59
2022/11/04 09:01:52;;;;;;;2.30;0.67;;;;;;;24.98;34.50;95416.03;5112351;28;20473;-57
2022/11/04 09:04:20;;;;;;;1.47;1.37;;;;;;;25.12;33.96;95402.75;5112333;28;20495;-58
2022/11/04 09:06:49;;;;;;;3.17;1.13;;;;;;;25.54;34.52;95395.41;5112070;28;20428;-58
2022/11/04 09:09:19;;;;;;;1.90;1.80;;;;;;;25.78;33.38;95408.59;5112317;28;20423;-58
2022/11/04 09:11:47;;;;;;;4.63;0.50;;;;;;;26.67;32.91;95371.84;5111896;28;20428;-58
2022/11/04 09:14:16;;;;;;;0.87;0.87;;;;;;;26.77;32.16;95388.31;5112102;28;20423;-59
2022/11/04 09:16:46;;;;;;;0.50;0.50;;;;;;;26.70;32.38;95377.31;5112004;28;20501;-59
2022/11/04 09:19:14;;;;;;;0.80;0.80;;;;;;;27.13;32.14;95384.06;5111905;28;20419;-58
2022/11/04 09:21:45;;;;;;;1.33;1.00;;;;;;;28.09;30.98;95381.06;5112137;28;20420;-58
2022/11/04 09:24:13;;;;;;;1.50;1.40;;;;;;;27.10;31.39;95368.47;5111382;28;20416;-59
2022/11/04 09:26:43;;;;;;;2.40;0.80;;;;;;;27.53;31.23;95364.25;5114306;28;20459;-59
2022/11/04 09:29:11;;;;;;;0.77;0.70;;;;;;;27.01;31.21;95357.13;5115619;27;20946;-61
2022/11/04 09:31:41;;;;;;;1.73;1.63;;;;;;;27.37;31.53;95360.97;5115743;28;20420;-60
2022/11/04 09:34:10;;;;;;;1.90;1.80;;;;;;;26.61;32.26;95346.94;5115638;28;20435;-60
2022/11/04 09:36:39;;;;;;;2.60;1.30;;;;;;;25.50;33.67;95350.34;5115382;28;20428;-60
2022/11/04 09:39:07;;;;;;;3.83;1.60;;;;;;;26.79;32.44;95342.47;5114416;28;20432;-60
2022/11/04 09:41:48;;;;;;;2.33;1.47;;;;;;;27.57;31.05;95341.34;5115550;28;20420;-60
2022/11/04 09:44:23;;;;;;;3.50;1.03;;;;;;;28.05;31.91;95330.44;5115421;27;20432;-60
2022/11/04 09:46:55;;;;;;;3.40;1.37;;;;;;;27.96;30.50;95327.22;5115453;28;20419;-59
2022/11/04 09:49:27;;;;;;;1.63;1.00;;;;;;;28.09;30.74;95332.00;5115199;27;20915;-59
2022/11/04 09:51:59;;;;;;;4.20;1.87;;;;;;;25.44;33.43;95339.00;5115056;28;20427;-60
2022/11/04 09:54:32;;;;;;;0.50;0.47;;;;;;;27.39;31.07;95332.25;5115442;28;20423;-60
2022/11/04 09:57:01;;;;;;;0.40;0.30;;;;;;;28.93;31.25;95309.00;5114503;28;20420;-60
2022/11/04 09:59:33;;;;;;;0.50;0.47;;;;;;;29.89;30.02;95305.22;5114894;28;20514;-60
2022/11/04 10:02:23;;;;;;;0.90;0.90;;;;;;;29.41;28.84;95301.31;5115106;27;20428;-60
2022/11/04 10:05:07;;;;;;;0.70;0.70;;;;;;;30.74;29.67;95288.53;5114633;28;20463;-60
2022/11/04 10:07:55;;;;;;;0.40;0.40;;;;;;;31.22;26.94;95269.50;5115235;28;20884;-60
2022/11/04 10:10:31;;;;;;;0.40;0.30;;;;;;;31.94;26.26;95276.72;5115075;28;20420;-60
2022/11/04 10:13:17;;;;;;;2.30;0.73;;;;;;;31.85;27.83;95274.44;5114681;28;20426;-60
2022/11/04 10:16:00;;;;;;;0.50;0.50;;;;;;;30.79;27.29;95267.00;5114552;28;20427;-60
2022/11/04 10:18:47;;;;;;;0.80;0.80;;;;;;;30.22;28.45;95251.22;5114581;28;20909;-61
2022/11/04 10:21:29;;;;;;;0.93;0.93;;;;;;;29.73;28.89;95246.66;5114179;28;20427;-60
2022/11/04 10:24:13;;;;;;;0.80;0.70;;;;;;;30.28;28.62;95249.66;5114410;28;20431;-61
2022/11/04 10:26:45;;;;;;;0.70;0.53;;;;;;;29.78;28.79;95238.09;5113878;28;20497;-61
2022/11/04 10:29:16;;;;;;;0.50;0.40;;;;;;;31.15;27.78;95232.00;5114540;28;20416;-61
2022/11/04 10:31:47;;;;;;;1.70;1.13;;;;;;;31.58;27.75;95229.69;5114605;28;20431;-61
2022/11/04 10:34:28;;;;;;;0.90;0.90;;;;;;;30.32;27.49;95223.06;5114528;28;20416;-61
2022/11/04 10:36:58;;;;;;;1.73;0.80;;;;;;;30.61;28.67;95213.56;5113896;27;20903;-60
2022/11/04 10:39:29;;;;;;;1.50;1.40;;;;;;;31.68;27.70;95217.06;5114207;28;20421;-61
2022/11/04 10:41:58;;;;;;;1.23;1.13;;;;;;;32.73;27.02;95187.63;5114683;28;20427;-61
2022/11/04 10:44:30;;;;;;;8.73;1.07;;;;;;;32.55;25.92;95193.38;5114238;28;20415;-61
2022/11/04 10:47:13;;;;;;;0.70;0.50;;;;;;;31.24;27.16;95191.25;5114079;28;20481;-60
2022/11/04 10:49:53;;;;;;;1.00;0.60;;;;;;;30.77;28.20;95189.22;5113558;28;20435;-60
2022/11/04 10:52:43;;;;;;;0.70;0.70;;;;;;;30.04;28.86;95183.75;5114177;28;20443;-60
2022/11/04 10:55:19;;;;;;;1.60;1.50;;;;;;;30.00;29.19;95180.25;5113960;28;20422;-60
2022/11/04 10:57:47;;;;;;;1.23;1.20;;;;;;;30.58;28.48;95160.44;5114155;28;20933;-52
2022/11/04 11:00:34;;;;;;;0.60;0.60;;;;;;;30.27;28.44;95166.84;5114193;28;20423;-52
2022/11/04 11:03:03;;;;;;;1.47;1.37;;;;;;;31.21;27.82;95164.66;5114031;28;20459;-52
2022/11/04 11:05:31;;;;;;;7.20;1.03;;;;;;;31.29;27.47;95157.16;5113722;28;20462;-52
2022/11/04 11:08:01;;;;;;;0.80;0.70;;;;;;;31.40;28.08;95155.88;5113798;28;20427;-52
2022/11/04 11:10:32;;;;;;;1.60;1.50;;;;;;;31.37;27.91;95142.22;5113603;28;20430;-52
2022/11/04 11:13:03;;;;;;;2.53;2.00;;;;;;;31.37;27.21;95156.69;5113639;28;20419;-52
2022/11/04 11:15:34;;;;;;;1.63;1.53;;;;;;;31.81;27.02;95153.13;5113353;27;21084;-52
2022/11/04 11:18:15;;;;;;;2.43;1.97;;;;;;;32.15;26.98;95155.09;5113812;27;20431;-52
2022/11/04 11:20:48;;;;;;;2.00;1.10;;;;;;;32.56;26.09;95145.53;5113372;28;20462;-52
2022/11/04 11:23:42;;;;;;;3.60;3.40;;;;;;;32.90;25.81;95130.91;5113298;28;20445;-52
2022/11/04 11:26:14;;;;;;;2.50;2.30;;;;;;;31.28;27.38;95133.69;5112243;28;20483;-53
2022/11/04 11:28:51;;;;;;;2.30;2.20;;;;;;;31.13;27.49;95130.31;5113446;28;20431;-53
2022/11/04 11:31:26;;;;;;;1.73;1.67;;;;;;;31.83;26.92;95117.06;5113437;28;20466;-52
2022/11/04 11:33:57;;;;;;;8.80;2.10;;;;;;;32.64;26.30;95107.78;5113066;28;20426;-52
2022/11/04 11:36:28;;;;;;;3.67;3.47;;;;;;;31.78;27.11;95103.81;5112765;28;20467;-53
2022/11/04 11:39:03;;;;;;;9.10;5.60;;;;;;;31.77;27.18;95111.28;5112128;28;20435;-53
2022/11/04 11:41:33;;;;;;;3.47;3.03;;;;;;;32.26;26.87;95107.13;5112586;28;20433;-53
2022/11/04 11:44:18;;;;;;;1.83;1.73;;;;;;;33.34;25.94;95091.31;5112707;28;20512;-53
2022/11/04 11:46:53;;;;;;;5.00;4.60;;;;;;;31.27;27.70;95097.31;5113027;28;20973;-53
2022/11/04 11:49:27;;;;;;;2.20;2.10;;;;;;;32.83;26.21;95085.13;5112261;28;20742;-53
2022/11/04 11:51:56;;;;;;;3.20;2.30;;;;;;;30.51;28.07;95063.97;5113064;28;20465;-53
2022/11/04 11:54:33;;;;;;;1.63;1.53;;;;;;;31.74;27.54;95079.19;5112671;28;20436;-53
2022/11/04 11:57:09;;;;;;;3.80;3.60;;;;;;;30.39;28.66;95075.38;5112642;28;20415;-53
2022/11/04 11:59:46;;;;;;;2.27;2.17;;;;;;;30.98;27.73;95068.66;5112867;28;20843;-53
2022/11/04 12:02:41;;;;;;;1.60;1.60;;;;;;;32.33;26.64;95062.38;5112495;28;20451;-53
2022/11/04 12:05:12;;;;;;;4.03;3.83;;;;;;;30.98;28.58;95052.25;5112806;28;20423;-53
2022/11/04 12:08:09;;;;;;;2.30;2.13;;;;;;;31.26;27.64;95051.16;5112453;28;20496;-53
2022/11/04 12:11:07;;;;;;;1.80;1.50;;;;;;;33.11;26.65;95045.44;5112389;28;20432;-53
2022/11/04 12:13:41;;;;;;;2.67;1.93;;;;;;;33.49;25.19;95037.66;5112881;28;20415;-53
2022/11/04 12:16:21;;;;;;;0.80;0.77;;;;;;;31.76;27.00;95035.72;5112387;28;20434;-53
2022/11/04 12:19:04;;;;;;;1.47;1.43;;;;;;;32.05;26.94;95029.88;5112956;28;20449;-53
2022/11/04 12:21:35;;;;;;;1.23;1.13;;;;;;;33.57;25.71;95039.88;5112037;28;20433;-53
2022/11/04 12:24:16;;;;;;;0.63;0.60;;;;;;;33.69;25.76;95028.22;5112529;27;20811;-54
2022/11/04 12:26:57;;;;;;;1.87;1.77;;;;;;;32.98;26.53;95031.53;5111928;28;21012;-54
2022/11/04 12:29:40;;;;;;;0.93;0.90;;;;;;;33.05;26.34;95028.66;5112200;28;20419;-54